sensor_id;sensor_type;location;lat;lon;timestamp;P1;durP1;ratioP1;P2;durP2;ratioP2
27265;SDS011;14766;51.380;13.762;2023-02-14T00:01:08;10.75;;;7.47;;
27265;SDS011;14766;51.380;13.762;2023-02-14T00:03:37;11.55;;;8.15;;
27265;SDS011;14766;51.380;13.762;2023-02-14T00:06:08;11.25;;;7.65;;
27265;SDS011;14766;51.380;13.762;2023-02-14T00:08:37;10.63;;;7.65;;
27265;SDS011;14766;51.380;13.762;2023-02-14T00:11:06;11.50;;;7.82;;
27265;SDS011;14766;51.380;13.762;2023-02-14T00:13:36;10.98;;;7.00;;
27265;SDS011;14766;51.380;13.762;2023-02-14T00:16:03;10.23;;;7.18;;
27265;SDS011;14766;51.380;13.762;2023-02-14T00:18:30;10.95;;;7.10;;
27265;SDS011;14766;51.380;13.762;2023-02-14T00:21:16;9.25;;;6.53;;
27265;SDS011;14766;51.380;13.762;2023-02-14T00:23:43;9.38;;;7.38;;
27265;SDS011;14766;51.380;13.762;2023-02-14T00:26:13;10.95;;;7.43;;
27265;SDS011;14766;51.380;13.762;2023-02-14T00:28:41;10.15;;;7.03;;
27265;SDS011;14766;51.380;13.762;2023-02-14T00:31:09;13.50;;;7.32;;
27265;SDS011;14766;51.380;13.762;2023-02-14T00:33:36;11.23;;;7.50;;
27265;SDS011;14766;51.380;13.762;2023-02-14T00:36:04;9.38;;;6.60;;
27265;SDS011;14766;51.380;13.762;2023-02-14T00:38:32;11.02;;;7.47;;
27265;SDS011;14766;51.380;13.762;2023-02-14T00:40:59;10.50;;;6.85;;
27265;SDS011;14766;51.380;13.762;2023-02-14T00:43:27;9.90;;;7.15;;
27265;SDS011;14766;51.380;13.762;2023-02-14T00:45:55;8.93;;;6.82;;
27265;SDS011;14766;51.380;13.762;2023-02-14T00:48:23;9.68;;;6.93;;
27265;SDS011;14766;51.380;13.762;2023-02-14T00:50:50;9.65;;;7.22;;
27265;SDS011;14766;51.380;13.762;2023-02-14T00:53:17;14.30;;;8.30;;
27265;SDS011;14766;51.380;13.762;2023-02-14T00:55:44;11.05;;;7.03;;
27265;SDS011;14766;51.380;13.762;2023-02-14T00:58:13;10.27;;;7.40;;
27265;SDS011;14766;51.380;13.762;2023-02-14T01:00:40;11.23;;;7.78;;
27265;SDS011;14766;51.380;13.762;2023-02-14T01:03:07;11.77;;;7.63;;
27265;SDS011;14766;51.380;13.762;2023-02-14T01:05:34;11.68;;;8.07;;
27265;SDS011;14766;51.380;13.762;2023-02-14T01:08:02;13.25;;;8.50;;
27265;SDS011;14766;51.380;13.762;2023-02-14T01:10:30;13.80;;;8.45;;
27265;SDS011;14766;51.380;13.762;2023-02-14T01:12:57;11.68;;;7.18;;
27265;SDS011;14766;51.380;13.762;2023-02-14T01:15:26;11.45;;;7.45;;
27265;SDS011;14766;51.380;13.762;2023-02-14T01:17:56;10.57;;;6.82;;
27265;SDS011;14766;51.380;13.762;2023-02-14T01:20:24;9.50;;;7.18;;
27265;SDS011;14766;51.380;13.762;2023-02-14T01:22:52;11.45;;;7.55;;
27265;SDS011;14766;51.380;13.762;2023-02-14T01:25:19;10.10;;;6.82;;
27265;SDS011;14766;51.380;13.762;2023-02-14T01:27:46;11.00;;;7.82;;
27265;SDS011;14766;51.380;13.762;2023-02-14T01:30:13;10.70;;;7.45;;
27265;SDS011;14766;51.380;13.762;2023-02-14T01:32:41;11.30;;;7.63;;
27265;SDS011;14766;51.380;13.762;2023-02-14T01:35:09;11.07;;;7.38;;
27265;SDS011;14766;51.380;13.762;2023-02-14T01:37:37;12.73;;;7.78;;
27265;SDS011;14766;51.380;13.762;2023-02-14T01:40:05;12.02;;;7.90;;
27265;SDS011;14766;51.380;13.762;2023-02-14T01:42:34;10.98;;;8.10;;
27265;SDS011;14766;51.380;13.762;2023-02-14T01:45:05;12.13;;;7.68;;
27265;SDS011;14766;51.380;13.762;2023-02-14T01:47:43;10.60;;;7.65;;
27265;SDS011;14766;51.380;13.762;2023-02-14T01:50:16;12.95;;;8.40;;
27265;SDS011;14766;51.380;13.762;2023-02-14T01:52:55;11.25;;;7.75;;
27265;SDS011;14766;51.380;13.762;2023-02-14T01:55:28;10.73;;;7.97;;
27265;SDS011;14766;51.380;13.762;2023-02-14T01:58:03;9.90;;;7.30;;
27265;SDS011;14766;51.380;13.762;2023-02-14T02:00:34;11.95;;;7.43;;
27265;SDS011;14766;51.380;13.762;2023-02-14T02:03:33;12.25;;;7.30;;
27265;SDS011;14766;51.380;13.762;2023-02-14T02:08:41;11.07;;;7.45;;
27265;SDS011;14766;51.380;13.762;2023-02-14T02:11:14;11.43;;;7.60;;
27265;SDS011;14766;51.380;13.762;2023-02-14T02:13:41;11.38;;;7.88;;
27265;SDS011;14766;51.380;13.762;2023-02-14T02:16:25;10.52;;;7.68;;
27265;SDS011;14766;51.380;13.762;2023-02-14T02:22:14;10.60;;;7.47;;
27265;SDS011;14766;51.380;13.762;2023-02-14T02:36:17;10.48;;;7.25;;
27265;SDS011;14766;51.380;13.762;2023-02-14T02:42:18;10.60;;;6.72;;
27265;SDS011;14766;51.380;13.762;2023-02-14T02:50:44;11.30;;;7.53;;
27265;SDS011;14766;51.380;13.762;2023-02-14T02:56:15;11.43;;;7.53;;
27265;SDS011;14766;51.380;13.762;2023-02-14T03:01:54;10.73;;;7.22;;
27265;SDS011;14766;51.380;13.762;2023-02-14T03:04:28;12.10;;;7.70;;
27265;SDS011;14766;51.380;13.762;2023-02-14T03:07:19;11.30;;;7.97;;
27265;SDS011;14766;51.380;13.762;2023-02-14T03:10:24;9.90;;;7.28;;
27265;SDS011;14766;51.380;13.762;2023-02-14T03:24:10;11.25;;;7.70;;
27265;SDS011;14766;51.380;13.762;2023-02-14T03:26:55;13.35;;;8.77;;
27265;SDS011;14766;51.380;13.762;2023-02-14T03:29:30;11.05;;;7.63;;
27265;SDS011;14766;51.380;13.762;2023-02-14T03:32:02;12.60;;;8.25;;
27265;SDS011;14766;51.380;13.762;2023-02-14T03:34:58;11.40;;;7.57;;
27265;SDS011;14766;51.380;13.762;2023-02-14T03:40:24;11.02;;;7.65;;
27265;SDS011;14766;51.380;13.762;2023-02-14T03:43:07;11.48;;;7.65;;
27265;SDS011;14766;51.380;13.762;2023-02-14T03:45:45;13.90;;;8.63;;
27265;SDS011;14766;51.380;13.762;2023-02-14T03:48:17;12.32;;;9.07;;
27265;SDS011;14766;51.380;13.762;2023-02-14T03:50:49;13.85;;;9.45;;
27265;SDS011;14766;51.380;13.762;2023-02-14T03:53:19;11.50;;;8.35;;
27265;SDS011;14766;51.380;13.762;2023-02-14T03:56:09;13.60;;;9.27;;
27265;SDS011;14766;51.380;13.762;2023-02-14T03:58:57;13.13;;;8.82;;
27265;SDS011;14766;51.380;13.762;2023-02-14T04:01:34;12.65;;;8.50;;
27265;SDS011;14766;51.380;13.762;2023-02-14T04:04:04;13.02;;;8.65;;
27265;SDS011;14766;51.380;13.762;2023-02-14T04:06:34;14.38;;;9.77;;
27265;SDS011;14766;51.380;13.762;2023-02-14T04:09:01;14.38;;;8.82;;
27265;SDS011;14766;51.380;13.762;2023-02-14T04:11:28;14.43;;;9.35;;
27265;SDS011;14766;51.380;13.762;2023-02-14T04:14:00;15.50;;;10.48;;
27265;SDS011;14766;51.380;13.762;2023-02-14T04:16:28;15.60;;;9.93;;
27265;SDS011;14766;51.380;13.762;2023-02-14T04:18:55;19.00;;;12.15;;
27265;SDS011;14766;51.380;13.762;2023-02-14T04:21:41;15.25;;;10.20;;
27265;SDS011;14766;51.380;13.762;2023-02-14T04:24:08;16.35;;;11.32;;
27265;SDS011;14766;51.380;13.762;2023-02-14T04:26:35;14.50;;;9.45;;
27265;SDS011;14766;51.380;13.762;2023-02-14T04:29:02;14.20;;;9.68;;
27265;SDS011;14766;51.380;13.762;2023-02-14T04:31:29;13.10;;;9.15;;
27265;SDS011;14766;51.380;13.762;2023-02-14T04:33:56;15.48;;;9.23;;
27265;SDS011;14766;51.380;13.762;2023-02-14T04:36:23;13.30;;;8.55;;
27265;SDS011;14766;51.380;13.762;2023-02-14T04:38:50;13.45;;;9.18;;
27265;SDS011;14766;51.380;13.762;2023-02-14T04:41:17;13.43;;;8.98;;
27265;SDS011;14766;51.380;13.762;2023-02-14T04:43:44;15.57;;;9.70;;
27265;SDS011;14766;51.380;13.762;2023-02-14T04:46:11;15.32;;;9.73;;
27265;SDS011;14766;51.380;13.762;2023-02-14T04:48:38;15.00;;;9.73;;
27265;SDS011;14766;51.380;13.762;2023-02-14T04:51:05;15.35;;;9.95;;
27265;SDS011;14766;51.380;13.762;2023-02-14T04:53:32;15.65;;;10.18;;
27265;SDS011;14766;51.380;13.762;2023-02-14T04:56:05;13.48;;;9.35;;
27265;SDS011;14766;51.380;13.762;2023-02-14T04:58:33;15.30;;;9.73;;
27265;SDS011;14766;51.380;13.762;2023-02-14T05:01:00;13.52;;;9.38;;
27265;SDS011;14766;51.380;13.762;2023-02-14T05:03:28;16.02;;;9.32;;
27265;SDS011;14766;51.380;13.762;2023-02-14T05:05:55;15.15;;;9.70;;
27265;SDS011;14766;51.380;13.762;2023-02-14T05:08:22;14.60;;;9.45;;
27265;SDS011;14766;51.380;13.762;2023-02-14T05:10:49;15.50;;;10.13;;
27265;SDS011;14766;51.380;13.762;2023-02-14T05:13:16;14.82;;;9.77;;
27265;SDS011;14766;51.380;13.762;2023-02-14T05:15:44;13.60;;;9.45;;
27265;SDS011;14766;51.380;13.762;2023-02-14T05:18:11;15.68;;;10.38;;
27265;SDS011;14766;51.380;13.762;2023-02-14T05:20:38;15.07;;;10.50;;
27265;SDS011;14766;51.380;13.762;2023-02-14T05:23:05;16.23;;;10.10;;
27265;SDS011;14766;51.380;13.762;2023-02-14T05:25:39;14.65;;;9.43;;
27265;SDS011;14766;51.380;13.762;2023-02-14T05:28:06;13.38;;;9.20;;
27265;SDS011;14766;51.380;13.762;2023-02-14T05:30:33;14.43;;;9.65;;
27265;SDS011;14766;51.380;13.762;2023-02-14T05:33:01;14.27;;;9.02;;
27265;SDS011;14766;51.380;13.762;2023-02-14T05:35:28;11.70;;;8.18;;
27265;SDS011;14766;51.380;13.762;2023-02-14T05:37:55;13.60;;;9.25;;
27265;SDS011;14766;51.380;13.762;2023-02-14T05:40:22;14.70;;;10.05;;
27265;SDS011;14766;51.380;13.762;2023-02-14T05:42:50;12.60;;;8.70;;
27265;SDS011;14766;51.380;13.762;2023-02-14T05:45:18;12.73;;;8.75;;
27265;SDS011;14766;51.380;13.762;2023-02-14T05:47:46;14.45;;;9.65;;
27265;SDS011;14766;51.380;13.762;2023-02-14T05:50:14;14.40;;;9.40;;
27265;SDS011;14766;51.380;13.762;2023-02-14T05:52:42;14.85;;;9.48;;
27265;SDS011;14766;51.380;13.762;2023-02-14T05:55:10;15.45;;;10.20;;
27265;SDS011;14766;51.380;13.762;2023-02-14T05:57:37;17.15;;;10.77;;
27265;SDS011;14766;51.380;13.762;2023-02-14T06:00:04;14.63;;;9.95;;
27265;SDS011;14766;51.380;13.762;2023-02-14T06:02:38;15.55;;;10.82;;
27265;SDS011;14766;51.380;13.762;2023-02-14T06:05:06;15.48;;;10.70;;
27265;SDS011;14766;51.380;13.762;2023-02-14T06:07:33;16.23;;;11.13;;
27265;SDS011;14766;51.380;13.762;2023-02-14T06:10:00;15.60;;;10.80;;
27265;SDS011;14766;51.380;13.762;2023-02-14T06:12:27;18.48;;;11.57;;
27265;SDS011;14766;51.380;13.762;2023-02-14T06:14:54;15.93;;;10.98;;
27265;SDS011;14766;51.380;13.762;2023-02-14T06:17:21;19.20;;;12.20;;
27265;SDS011;14766;51.380;13.762;2023-02-14T06:19:48;15.98;;;10.57;;
27265;SDS011;14766;51.380;13.762;2023-02-14T06:22:15;15.32;;;10.52;;
27265;SDS011;14766;51.380;13.762;2023-02-14T06:24:42;16.08;;;10.48;;
27265;SDS011;14766;51.380;13.762;2023-02-14T06:27:09;18.55;;;12.00;;
27265;SDS011;14766;51.380;13.762;2023-02-14T06:29:36;17.55;;;11.13;;
27265;SDS011;14766;51.380;13.762;2023-02-14T06:32:03;15.32;;;10.63;;
27265;SDS011;14766;51.380;13.762;2023-02-14T06:34:32;15.45;;;11.02;;
27265;SDS011;14766;51.380;13.762;2023-02-14T06:37:00;18.13;;;11.77;;
27265;SDS011;14766;51.380;13.762;2023-02-14T06:39:27;18.02;;;10.82;;
27265;SDS011;14766;51.380;13.762;2023-02-14T06:41:54;16.77;;;11.07;;
27265;SDS011;14766;51.380;13.762;2023-02-14T06:44:21;19.98;;;13.35;;
27265;SDS011;14766;51.380;13.762;2023-02-14T06:46:48;21.77;;;14.27;;
27265;SDS011;14766;51.380;13.762;2023-02-14T06:49:15;21.77;;;14.05;;
27265;SDS011;14766;51.380;13.762;2023-02-14T06:51:42;20.77;;;12.60;;
27265;SDS011;14766;51.380;13.762;2023-02-14T06:54:09;18.52;;;12.80;;
27265;SDS011;14766;51.380;13.762;2023-02-14T06:56:37;19.55;;;12.10;;
27265;SDS011;14766;51.380;13.762;2023-02-14T06:59:04;16.60;;;10.95;;
27265;SDS011;14766;51.380;13.762;2023-02-14T07:01:31;15.82;;;11.02;;
27265;SDS011;14766;51.380;13.762;2023-02-14T07:03:59;17.92;;;11.77;;
27265;SDS011;14766;51.380;13.762;2023-02-14T07:06:26;16.48;;;11.20;;
27265;SDS011;14766;51.380;13.762;2023-02-14T07:08:53;17.40;;;11.00;;
27265;SDS011;14766;51.380;13.762;2023-02-14T07:11:20;15.70;;;10.80;;
27265;SDS011;14766;51.380;13.762;2023-02-14T07:13:47;16.50;;;11.50;;
27265;SDS011;14766;51.380;13.762;2023-02-14T07:16:14;19.83;;;12.23;;
27265;SDS011;14766;51.380;13.762;2023-02-14T07:18:42;17.90;;;11.73;;
27265;SDS011;14766;51.380;13.762;2023-02-14T07:21:09;19.73;;;12.40;;
27265;SDS011;14766;51.380;13.762;2023-02-14T07:23:36;20.13;;;14.07;;
27265;SDS011;14766;51.380;13.762;2023-02-14T07:26:03;21.45;;;13.68;;
27265;SDS011;14766;51.380;13.762;2023-02-14T07:28:30;21.63;;;13.55;;
27265;SDS011;14766;51.380;13.762;2023-02-14T07:30:59;22.70;;;14.05;;
27265;SDS011;14766;51.380;13.762;2023-02-14T07:33:27;26.88;;;16.20;;
27265;SDS011;14766;51.380;13.762;2023-02-14T07:35:54;29.65;;;17.08;;
27265;SDS011;14766;51.380;13.762;2023-02-14T07:38:21;27.80;;;17.38;;
27265;SDS011;14766;51.380;13.762;2023-02-14T07:40:52;31.60;;;18.83;;
27265;SDS011;14766;51.380;13.762;2023-02-14T07:43:19;30.17;;;18.13;;
27265;SDS011;14766;51.380;13.762;2023-02-14T07:45:46;27.95;;;16.77;;
27265;SDS011;14766;51.380;13.762;2023-02-14T07:48:14;23.85;;;15.77;;
27265;SDS011;14766;51.380;13.762;2023-02-14T07:50:41;22.30;;;14.45;;
27265;SDS011;14766;51.380;13.762;2023-02-14T07:53:08;22.48;;;14.20;;
27265;SDS011;14766;51.380;13.762;2023-02-14T07:55:36;23.15;;;14.85;;
27265;SDS011;14766;51.380;13.762;2023-02-14T07:58:03;23.20;;;15.98;;
27265;SDS011;14766;51.380;13.762;2023-02-14T08:00:30;24.95;;;15.70;;
27265;SDS011;14766;51.380;13.762;2023-02-14T08:02:57;23.30;;;16.17;;
27265;SDS011;14766;51.380;13.762;2023-02-14T08:05:24;21.58;;;14.52;;
27265;SDS011;14766;51.380;13.762;2023-02-14T08:07:51;21.15;;;14.43;;
27265;SDS011;14766;51.380;13.762;2023-02-14T08:10:18;22.23;;;14.63;;
27265;SDS011;14766;51.380;13.762;2023-02-14T08:12:45;21.33;;;13.70;;
27265;SDS011;14766;51.380;13.762;2023-02-14T08:15:28;21.38;;;14.65;;
27265;SDS011;14766;51.380;13.762;2023-02-14T08:18:19;21.45;;;14.63;;
27265;SDS011;14766;51.380;13.762;2023-02-14T08:20:48;20.90;;;13.93;;
27265;SDS011;14766;51.380;13.762;2023-02-14T08:23:16;18.00;;;12.75;;
27265;SDS011;14766;51.380;13.762;2023-02-14T08:25:44;19.50;;;14.38;;
27265;SDS011;14766;51.380;13.762;2023-02-14T08:28:12;18.55;;;12.48;;
27265;SDS011;14766;51.380;13.762;2023-02-14T08:30:40;13.07;;;10.65;;
27265;SDS011;14766;51.380;13.762;2023-02-14T08:33:09;17.05;;;11.45;;
27265;SDS011;14766;51.380;13.762;2023-02-14T08:35:36;16.70;;;10.43;;
27265;SDS011;14766;51.380;13.762;2023-02-14T08:38:04;14.35;;;10.27;;
27265;SDS011;14766;51.380;13.762;2023-02-14T08:40:32;15.85;;;10.38;;
27265;SDS011;14766;51.380;13.762;2023-02-14T08:42:59;12.57;;;9.95;;
27265;SDS011;14766;51.380;13.762;2023-02-14T08:45:26;14.02;;;9.95;;
27265;SDS011;14766;51.380;13.762;2023-02-14T08:47:53;14.13;;;11.05;;
27265;SDS011;14766;51.380;13.762;2023-02-14T08:50:26;13.80;;;10.52;;
27265;SDS011;14766;51.380;13.762;2023-02-14T08:52:54;16.27;;;11.98;;
27265;SDS011;14766;51.380;13.762;2023-02-14T08:55:21;13.77;;;10.80;;
27265;SDS011;14766;51.380;13.762;2023-02-14T08:57:48;15.38;;;10.55;;
27265;SDS011;14766;51.380;13.762;2023-02-14T09:00:15;15.63;;;11.63;;
27265;SDS011;14766;51.380;13.762;2023-02-14T09:02:42;15.93;;;10.25;;
27265;SDS011;14766;51.380;13.762;2023-02-14T09:05:10;15.20;;;10.73;;
27265;SDS011;14766;51.380;13.762;2023-02-14T09:07:37;14.45;;;10.35;;
27265;SDS011;14766;51.380;13.762;2023-02-14T09:10:04;14.30;;;10.07;;
27265;SDS011;14766;51.380;13.762;2023-02-14T09:12:32;16.63;;;12.73;;
27265;SDS011;14766;51.380;13.762;2023-02-14T09:14:59;14.13;;;10.98;;
27265;SDS011;14766;51.380;13.762;2023-02-14T09:17:26;15.00;;;11.95;;
27265;SDS011;14766;51.380;13.762;2023-02-14T09:19:53;13.68;;;10.20;;
27265;SDS011;14766;51.380;13.762;2023-02-14T09:22:20;15.40;;;10.77;;
27265;SDS011;14766;51.380;13.762;2023-02-14T09:24:47;14.85;;;11.30;;
27265;SDS011;14766;51.380;13.762;2023-02-14T09:27:14;14.02;;;10.82;;
27265;SDS011;14766;51.380;13.762;2023-02-14T09:29:42;11.68;;;8.80;;
27265;SDS011;14766;51.380;13.762;2023-02-14T09:32:09;13.23;;;9.77;;
27265;SDS011;14766;51.380;13.762;2023-02-14T09:34:37;12.50;;;9.75;;
27265;SDS011;14766;51.380;13.762;2023-02-14T09:37:22;14.07;;;10.57;;
27265;SDS011;14766;51.380;13.762;2023-02-14T09:39:49;12.95;;;10.38;;
27265;SDS011;14766;51.380;13.762;2023-02-14T09:45:38;16.63;;;12.38;;
27265;SDS011;14766;51.380;13.762;2023-02-14T09:48:11;14.70;;;11.65;;
27265;SDS011;14766;51.380;13.762;2023-02-14T09:53:27;15.77;;;11.40;;
27265;SDS011;14766;51.380;13.762;2023-02-14T09:58:41;18.08;;;12.30;;
27265;SDS011;14766;51.380;13.762;2023-02-14T10:01:12;15.85;;;10.82;;
27265;SDS011;14766;51.380;13.762;2023-02-14T10:10:22;18.88;;;12.98;;
27265;SDS011;14766;51.380;13.762;2023-02-14T10:15:48;17.55;;;11.32;;
27265;SDS011;14766;51.380;13.762;2023-02-14T10:18:25;15.20;;;11.35;;
27265;SDS011;14766;51.380;13.762;2023-02-14T10:21:11;17.67;;;11.57;;
27265;SDS011;14766;51.380;13.762;2023-02-14T10:23:50;16.52;;;11.55;;
27265;SDS011;14766;51.380;13.762;2023-02-14T10:26:39;16.70;;;11.93;;
27265;SDS011;14766;51.380;13.762;2023-02-14T10:29:17;17.35;;;11.98;;
27265;SDS011;14766;51.380;13.762;2023-02-14T10:31:51;15.20;;;10.70;;
27265;SDS011;14766;51.380;13.762;2023-02-14T10:45:32;15.55;;;10.77;;
27265;SDS011;14766;51.380;13.762;2023-02-14T10:55:56;14.05;;;10.02;;
27265;SDS011;14766;51.380;13.762;2023-02-14T10:58:32;15.88;;;11.15;;
27265;SDS011;14766;51.380;13.762;2023-02-14T11:01:12;17.80;;;11.30;;
27265;SDS011;14766;51.380;13.762;2023-02-14T11:03:41;15.40;;;10.35;;
27265;SDS011;14766;51.380;13.762;2023-02-14T11:06:21;13.10;;;10.40;;
27265;SDS011;14766;51.380;13.762;2023-02-14T11:08:48;13.80;;;10.30;;
27265;SDS011;14766;51.380;13.762;2023-02-14T11:13:52;16.65;;;10.93;;
27265;SDS011;14766;51.380;13.762;2023-02-14T11:16:35;16.67;;;10.32;;
27265;SDS011;14766;51.380;13.762;2023-02-14T11:21:46;13.48;;;10.25;;
27265;SDS011;14766;51.380;13.762;2023-02-14T11:24:32;15.80;;;10.65;;
27265;SDS011;14766;51.380;13.762;2023-02-14T11:27:02;14.90;;;10.32;;
27265;SDS011;14766;51.380;13.762;2023-02-14T11:34:41;13.85;;;9.68;;
27265;SDS011;14766;51.380;13.762;2023-02-14T11:39:48;13.75;;;9.65;;
27265;SDS011;14766;51.380;13.762;2023-02-14T11:44:59;12.68;;;9.40;;
27265;SDS011;14766;51.380;13.762;2023-02-14T11:47:27;13.13;;;9.57;;
27265;SDS011;14766;51.380;13.762;2023-02-14T11:49:57;13.30;;;10.00;;
27265;SDS011;14766;51.380;13.762;2023-02-14T11:52:32;17.92;;;12.07;;
27265;SDS011;14766;51.380;13.762;2023-02-14T11:55:05;17.48;;;11.90;;
27265;SDS011;14766;51.380;13.762;2023-02-14T11:57:39;16.70;;;10.93;;
27265;SDS011;14766;51.380;13.762;2023-02-14T12:00:24;14.68;;;10.60;;
27265;SDS011;14766;51.380;13.762;2023-02-14T12:02:52;12.93;;;9.00;;
27265;SDS011;14766;51.380;13.762;2023-02-14T12:07:57;15.75;;;11.13;;
27265;SDS011;14766;51.380;13.762;2023-02-14T12:10:34;15.63;;;11.05;;
27265;SDS011;14766;51.380;13.762;2023-02-14T12:26:50;14.23;;;10.13;;
27265;SDS011;14766;51.380;13.762;2023-02-14T12:29:37;14.18;;;10.20;;
27265;SDS011;14766;51.380;13.762;2023-02-14T12:32:20;15.70;;;11.07;;
27265;SDS011;14766;51.380;13.762;2023-02-14T12:34:49;13.30;;;10.07;;
27265;SDS011;14766;51.380;13.762;2023-02-14T12:37:22;16.02;;;11.23;;
27265;SDS011;14766;51.380;13.762;2023-02-14T12:40:19;14.43;;;10.18;;
27265;SDS011;14766;51.380;13.762;2023-02-14T12:48:53;13.48;;;9.93;;
27265;SDS011;14766;51.380;13.762;2023-02-14T12:59:55;15.27;;;10.65;;
27265;SDS011;14766;51.380;13.762;2023-02-14T13:18:51;16.30;;;10.68;;
27265;SDS011;14766;51.380;13.762;2023-02-14T13:21:24;14.90;;;10.20;;
27265;SDS011;14766;51.380;13.762;2023-02-14T13:23:55;16.30;;;11.25;;
27265;SDS011;14766;51.380;13.762;2023-02-14T13:26:39;15.93;;;10.57;;
27265;SDS011;14766;51.380;13.762;2023-02-14T13:29:17;14.73;;;10.75;;
27265;SDS011;14766;51.380;13.762;2023-02-14T13:31:46;15.00;;;10.75;;
27265;SDS011;14766;51.380;13.762;2023-02-14T13:36:55;15.93;;;11.05;;
27265;SDS011;14766;51.380;13.762;2023-02-14T13:39:28;15.65;;;11.05;;
27265;SDS011;14766;51.380;13.762;2023-02-14T13:50:33;15.65;;;11.02;;
27265;SDS011;14766;51.380;13.762;2023-02-14T13:53:04;14.85;;;10.85;;
27265;SDS011;14766;51.380;13.762;2023-02-14T13:55:41;17.40;;;11.85;;
27265;SDS011;14766;51.380;13.762;2023-02-14T13:58:16;18.75;;;11.82;;
27265;SDS011;14766;51.380;13.762;2023-02-14T14:00:48;15.38;;;10.45;;
27265;SDS011;14766;51.380;13.762;2023-02-14T14:11:09;19.08;;;12.52;;
27265;SDS011;14766;51.380;13.762;2023-02-14T14:18:58;17.40;;;11.07;;
27265;SDS011;14766;51.380;13.762;2023-02-14T14:21:30;17.90;;;11.50;;
27265;SDS011;14766;51.380;13.762;2023-02-14T14:26:59;15.90;;;10.27;;
27265;SDS011;14766;51.380;13.762;2023-02-14T14:32:23;16.40;;;10.75;;
27265;SDS011;14766;51.380;13.762;2023-02-14T14:34:54;17.92;;;11.13;;
27265;SDS011;14766;51.380;13.762;2023-02-14T14:37:30;18.58;;;11.80;;
27265;SDS011;14766;51.380;13.762;2023-02-14T14:39:59;17.13;;;10.68;;
27265;SDS011;14766;51.380;13.762;2023-02-14T14:42:29;14.38;;;9.57;;
27265;SDS011;14766;51.380;13.762;2023-02-14T14:47:50;16.67;;;10.77;;
27265;SDS011;14766;51.380;13.762;2023-02-14T14:50:23;16.40;;;10.70;;
27265;SDS011;14766;51.380;13.762;2023-02-14T14:52:53;17.70;;;11.70;;
27265;SDS011;14766;51.380;13.762;2023-02-14T14:55:25;15.50;;;10.07;;
27265;SDS011;14766;51.380;13.762;2023-02-14T14:58:05;16.48;;;10.75;;
27265;SDS011;14766;51.380;13.762;2023-02-14T15:00:52;14.50;;;9.75;;
27265;SDS011;14766;51.380;13.762;2023-02-14T15:03:20;15.30;;;10.52;;
27265;SDS011;14766;51.380;13.762;2023-02-14T15:05:50;16.42;;;10.60;;
27265;SDS011;14766;51.380;13.762;2023-02-14T15:08:30;16.60;;;10.75;;
27265;SDS011;14766;51.380;13.762;2023-02-14T15:16:31;13.38;;;9.25;;
27265;SDS011;14766;51.380;13.762;2023-02-14T15:19:07;13.13;;;9.00;;
27265;SDS011;14766;51.380;13.762;2023-02-14T15:21:39;11.43;;;8.60;;
27265;SDS011;14766;51.380;13.762;2023-02-14T15:24:11;12.07;;;8.60;;
27265;SDS011;14766;51.380;13.762;2023-02-14T15:26:41;13.20;;;9.20;;
27265;SDS011;14766;51.380;13.762;2023-02-14T15:29:18;13.07;;;9.07;;
27265;SDS011;14766;51.380;13.762;2023-02-14T15:31:55;12.35;;;8.60;;
27265;SDS011;14766;51.380;13.762;2023-02-14T15:34:33;13.18;;;8.73;;
27265;SDS011;14766;51.380;13.762;2023-02-14T15:37:04;11.60;;;8.82;;
27265;SDS011;14766;51.380;13.762;2023-02-14T15:39:36;12.55;;;8.90;;
27265;SDS011;14766;51.380;13.762;2023-02-14T15:42:26;14.00;;;9.23;;
27265;SDS011;14766;51.380;13.762;2023-02-14T15:45:19;13.13;;;9.65;;
27265;SDS011;14766;51.380;13.762;2023-02-14T15:47:50;12.10;;;8.60;;
27265;SDS011;14766;51.380;13.762;2023-02-14T15:50:23;11.65;;;8.18;;
27265;SDS011;14766;51.380;13.762;2023-02-14T15:53:02;10.35;;;7.60;;
27265;SDS011;14766;51.380;13.762;2023-02-14T15:55:45;11.05;;;8.13;;
27265;SDS011;14766;51.380;13.762;2023-02-14T15:58:19;11.38;;;7.65;;
27265;SDS011;14766;51.380;13.762;2023-02-14T16:00:49;14.02;;;9.20;;
27265;SDS011;14766;51.380;13.762;2023-02-14T16:03:21;13.38;;;8.45;;
27265;SDS011;14766;51.380;13.762;2023-02-14T16:05:51;12.57;;;9.05;;
27265;SDS011;14766;51.380;13.762;2023-02-14T16:08:25;12.43;;;9.13;;
27265;SDS011;14766;51.380;13.762;2023-02-14T16:11:10;11.52;;;8.13;;
27265;SDS011;14766;51.380;13.762;2023-02-14T16:13:41;13.32;;;8.32;;
27265;SDS011;14766;51.380;13.762;2023-02-14T16:16:10;12.35;;;8.15;;
27265;SDS011;14766;51.380;13.762;2023-02-14T16:18:40;12.57;;;8.73;;
27265;SDS011;14766;51.380;13.762;2023-02-14T16:21:22;13.15;;;8.88;;
27265;SDS011;14766;51.380;13.762;2023-02-14T16:24:16;11.98;;;8.65;;
27265;SDS011;14766;51.380;13.762;2023-02-14T16:26:40;13.57;;;8.95;;
27265;SDS011;14766;51.380;13.762;2023-02-14T16:29:10;14.48;;;8.60;;
27265;SDS011;14766;51.380;13.762;2023-02-14T16:31:48;15.32;;;10.07;;
27265;SDS011;14766;51.380;13.762;2023-02-14T16:34:37;12.93;;;9.40;;
27265;SDS011;14766;51.380;13.762;2023-02-14T16:37:06;13.13;;;9.38;;
27265;SDS011;14766;51.380;13.762;2023-02-14T16:39:34;14.18;;;9.32;;
27265;SDS011;14766;51.380;13.762;2023-02-14T16:42:04;14.90;;;9.55;;
27265;SDS011;14766;51.380;13.762;2023-02-14T16:44:31;14.30;;;9.70;;
27265;SDS011;14766;51.380;13.762;2023-02-14T16:47:00;12.15;;;8.57;;
27265;SDS011;14766;51.380;13.762;2023-02-14T16:49:27;12.88;;;9.35;;
27265;SDS011;14766;51.380;13.762;2023-02-14T16:51:54;11.93;;;8.48;;
27265;SDS011;14766;51.380;13.762;2023-02-14T16:54:23;11.40;;;7.47;;
27265;SDS011;14766;51.380;13.762;2023-02-14T16:56:53;9.95;;;7.53;;
27265;SDS011;14766;51.380;13.762;2023-02-14T16:59:23;9.88;;;7.10;;
27265;SDS011;14766;51.380;13.762;2023-02-14T17:01:51;10.70;;;7.20;;
27265;SDS011;14766;51.380;13.762;2023-02-14T17:04:18;12.40;;;7.20;;
27265;SDS011;14766;51.380;13.762;2023-02-14T17:06:48;8.75;;;6.35;;
27265;SDS011;14766;51.380;13.762;2023-02-14T17:09:19;11.50;;;7.72;;
27265;SDS011;14766;51.380;13.762;2023-02-14T17:11:53;10.20;;;7.38;;
27265;SDS011;14766;51.380;13.762;2023-02-14T17:14:23;10.73;;;7.20;;
27265;SDS011;14766;51.380;13.762;2023-02-14T17:16:54;9.38;;;7.10;;
27265;SDS011;14766;51.380;13.762;2023-02-14T17:19:22;10.23;;;6.78;;
27265;SDS011;14766;51.380;13.762;2023-02-14T17:21:50;10.30;;;7.10;;
27265;SDS011;14766;51.380;13.762;2023-02-14T17:24:18;10.07;;;6.55;;
27265;SDS011;14766;51.380;13.762;2023-02-14T17:26:45;11.32;;;7.53;;
27265;SDS011;14766;51.380;13.762;2023-02-14T17:29:11;9.75;;;6.55;;
27265;SDS011;14766;51.380;13.762;2023-02-14T17:31:38;10.00;;;7.22;;
27265;SDS011;14766;51.380;13.762;2023-02-14T17:34:06;12.38;;;6.93;;
27265;SDS011;14766;51.380;13.762;2023-02-14T17:36:33;11.73;;;6.72;;
27265;SDS011;14766;51.380;13.762;2023-02-14T17:39:00;10.55;;;7.13;;
27265;SDS011;14766;51.380;13.762;2023-02-14T17:41:29;10.27;;;6.95;;
27265;SDS011;14766;51.380;13.762;2023-02-14T17:43:57;9.73;;;7.00;;